createdAt,value
2023-05-13T00:01:59.849Z,14.83
2023-05-13T00:04:26.703Z,14.78
2023-05-13T00:06:53.290Z,14.68
2023-05-13T00:09:19.852Z,14.77
2023-05-13T00:11:46.409Z,14.70
2023-05-13T00:14:12.981Z,14.64
2023-05-13T00:16:39.683Z,14.58
2023-05-13T00:19:31.749Z,14.54
2023-05-13T00:21:58.341Z,14.47
2023-05-13T00:24:24.977Z,14.40
2023-05-13T00:26:51.518Z,14.23
2023-05-13T00:29:18.069Z,14.17
2023-05-13T00:31:44.807Z,14.21
2023-05-13T00:34:11.945Z,14.08
2023-05-13T00:36:38.854Z,14.14
2023-05-13T00:39:05.609Z,14.16
2023-05-13T00:41:32.264Z,14.08
2023-05-13T00:43:58.808Z,13.97
2023-05-13T00:46:25.743Z,13.85
2023-05-13T00:48:52.579Z,13.80
2023-05-13T00:51:19.177Z,13.82
2023-05-13T00:53:46.328Z,13.80
2023-05-13T00:56:14.076Z,13.76
2023-05-13T00:58:40.624Z,13.66
2023-05-13T01:01:21.029Z,13.54
2023-05-13T01:04:03.936Z,13.64
2023-05-13T01:06:45.088Z,13.64
2023-05-13T01:09:34.806Z,13.61
2023-05-13T01:12:17.481Z,13.40
2023-05-13T01:15:13.957Z,13.39
2023-05-13T01:18:05.180Z,13.36
2023-05-13T01:20:34.538Z,13.40
2023-05-13T01:23:01.172Z,13.42
2023-05-13T01:25:27.807Z,13.30
2023-05-13T01:27:54.700Z,13.19
2023-05-13T01:30:23.711Z,13.13
2023-05-13T01:32:51.767Z,13.18
2023-05-13T01:35:20.596Z,13.12
2023-05-13T01:37:50.132Z,13.12
2023-05-13T01:40:31.050Z,13.14
2023-05-13T01:43:01.588Z,13.25
2023-05-13T01:45:30.130Z,13.34
2023-05-13T01:47:57.609Z,13.35
2023-05-13T01:50:26.350Z,13.26
2023-05-13T01:52:52.928Z,13.32
2023-05-13T01:55:19.792Z,13.30
2023-05-13T01:57:48.289Z,13.21
2023-05-13T02:00:16.300Z,13.30
2023-05-13T02:02:43.012Z,13.33
2023-05-13T02:05:09.980Z,13.32
2023-05-13T02:07:38.935Z,13.17
2023-05-13T02:10:06.184Z,13.15
2023-05-13T02:12:32.985Z,12.98
2023-05-13T02:14:59.553Z,12.95
2023-05-13T02:17:26.263Z,12.82
2023-05-13T02:19:53.653Z,12.77
2023-05-13T02:22:20.298Z,12.72
2023-05-13T02:24:46.818Z,12.77
2023-05-13T02:27:16.182Z,12.72
2023-05-13T02:29:42.842Z,12.72
2023-05-13T02:32:09.977Z,12.72
2023-05-13T02:34:36.815Z,12.70
2023-05-13T02:37:03.989Z,12.63
2023-05-13T02:39:31.402Z,12.52
2023-05-13T02:41:59.786Z,12.47
2023-05-13T02:44:31.426Z,12.32
2023-05-13T02:46:58.062Z,12.35
2023-05-13T02:49:24.802Z,12.38
2023-05-13T02:51:51.399Z,12.36
2023-05-13T02:54:22.969Z,12.37
2023-05-13T02:56:49.626Z,12.43
2023-05-13T02:59:16.349Z,12.35
2023-05-13T03:01:43.225Z,12.29
2023-05-13T03:04:09.993Z,12.27
2023-05-13T03:06:36.548Z,12.27
2023-05-13T03:09:03.180Z,12.32
2023-05-13T03:11:29.756Z,12.31
2023-05-13T03:13:56.355Z,12.36
2023-05-13T03:16:22.960Z,12.25
2023-05-13T03:18:49.544Z,12.16
2023-05-13T03:21:17.584Z,12.08
2023-05-13T03:23:44.290Z,12.05
2023-05-13T03:26:11.081Z,12.08
2023-05-13T03:28:37.705Z,12.10
2023-05-13T03:31:04.651Z,12.05
2023-05-13T03:33:35.536Z,11.96
2023-05-13T03:36:02.192Z,11.99
2023-05-13T03:38:31.574Z,12.05
2023-05-13T03:40:58.389Z,12.11
2023-05-13T03:43:25.652Z,12.03
2023-05-13T03:45:57.189Z,12.00
2023-05-13T03:48:23.876Z,11.89
2023-05-13T03:50:50.759Z,11.97
2023-05-13T03:53:18.763Z,12.00
2023-05-13T03:55:46.129Z,12.04
2023-05-13T03:58:14.879Z,12.04
2023-05-13T04:00:42.812Z,11.99
2023-05-13T04:03:09.557Z,12.03
2023-05-13T04:05:36.202Z,11.97
2023-05-13T04:08:02.827Z,11.98
2023-05-13T04:10:29.465Z,12.09
2023-05-13T04:12:57.377Z,12.11
2023-05-13T04:15:24.048Z,12.18
2023-05-13T04:17:52.488Z,12.28
2023-05-13T04:20:19.993Z,12.27
2023-05-13T04:22:48.437Z,12.31
2023-05-13T04:25:15.835Z,12.17
2023-05-13T04:27:42.684Z,12.12
2023-05-13T04:30:17.165Z,12.22
2023-05-13T04:32:44.303Z,12.37
2023-05-13T04:35:12.444Z,12.46
2023-05-13T04:37:40.120Z,12.56
2023-05-13T04:40:10.359Z,12.54
2023-05-13T04:42:37.370Z,12.60
2023-05-13T04:45:04.410Z,12.55
2023-05-13T04:47:35.027Z,12.54
2023-05-13T04:50:02.118Z,12.60
2023-05-13T04:52:30.282Z,12.71
2023-05-13T04:54:56.990Z,12.72
2023-05-13T04:57:23.638Z,12.84
2023-05-13T04:59:50.789Z,12.94
2023-05-13T05:02:17.716Z,12.98
2023-05-13T05:04:44.912Z,13.07
2023-05-13T05:07:13.782Z,13.14
2023-05-13T05:09:40.565Z,13.33
2023-05-13T05:12:07.783Z,13.52
2023-05-13T05:14:38.096Z,13.66
2023-05-13T05:17:05.918Z,13.95
2023-05-13T05:19:32.675Z,14.09
2023-05-13T05:21:59.349Z,14.28
2023-05-13T05:24:26.450Z,14.51
2023-05-13T05:26:53.036Z,14.61
2023-05-13T05:29:19.809Z,14.81
2023-05-13T05:31:46.496Z,14.75
2023-05-13T05:34:14.538Z,14.91
2023-05-13T05:36:42.652Z,15.03
2023-05-13T05:39:13.656Z,15.00
2023-05-13T05:41:40.240Z,15.21
2023-05-13T05:44:06.915Z,15.22
2023-05-13T05:46:34.104Z,15.36
2023-05-13T05:49:03.510Z,15.41
2023-05-13T05:51:32.334Z,15.45
2023-05-13T05:54:01.710Z,15.53
2023-05-13T05:56:28.454Z,15.52
2023-05-13T05:58:55.248Z,15.64
2023-05-13T06:01:21.833Z,15.66
2023-05-13T06:03:48.499Z,15.73
2023-05-13T06:06:16.552Z,15.69
2023-05-13T06:08:44.399Z,15.92
2023-05-13T06:11:11.091Z,15.92
2023-05-13T06:13:38.459Z,15.98
2023-05-13T06:16:05.793Z,16.04
2023-05-13T06:18:32.429Z,16.07
2023-05-13T06:20:59.066Z,16.06
2023-05-13T06:23:25.675Z,16.12
2023-05-13T06:25:52.559Z,16.22
2023-05-13T06:28:19.284Z,16.28
2023-05-13T06:30:46.061Z,16.27
2023-05-13T06:33:12.984Z,16.12
2023-05-13T06:35:39.765Z,16.28
2023-05-13T06:38:07.309Z,16.37
2023-05-13T06:40:35.132Z,16.31
2023-05-13T06:43:02.286Z,16.43
2023-05-13T06:45:31.171Z,16.49
2023-05-13T06:47:58.163Z,16.63
2023-05-13T06:50:25.159Z,16.78
2023-05-13T06:52:52.131Z,16.81
2023-05-13T06:55:19.046Z,16.59
2023-05-13T06:57:46.885Z,16.54
2023-05-13T07:00:16.467Z,16.64
2023-05-13T07:02:43.130Z,16.63
2023-05-13T07:05:12.531Z,16.67
2023-05-13T07:07:39.307Z,16.68
2023-05-13T07:10:06.170Z,16.92
2023-05-13T07:12:33.274Z,17.01
2023-05-13T07:14:59.917Z,16.98
2023-05-13T07:17:26.667Z,17.26
2023-05-13T07:19:53.389Z,17.27
2023-05-13T07:22:20.033Z,17.39
2023-05-13T07:24:46.699Z,17.25
2023-05-13T07:27:13.311Z,17.47
2023-05-13T07:29:39.906Z,17.32
2023-05-13T07:32:07.394Z,17.52
2023-05-13T07:34:34.047Z,17.57
2023-05-13T07:37:00.678Z,17.80
2023-05-13T07:39:27.811Z,17.90
2023-05-13T07:41:54.941Z,18.06
2023-05-13T07:44:21.793Z,18.03
2023-05-13T07:46:49.385Z,17.84
2023-05-13T07:49:16.431Z,18.08
2023-05-13T07:51:43.091Z,18.16
2023-05-13T07:54:10.083Z,18.25
2023-05-13T07:56:38.036Z,18.44
2023-05-13T07:59:04.810Z,18.51
2023-05-13T08:01:31.461Z,18.54
2023-05-13T08:03:58.215Z,18.73
2023-05-13T08:06:25.029Z,18.59
2023-05-13T08:08:51.592Z,18.54
2023-05-13T08:11:18.122Z,18.73
2023-05-13T08:13:44.676Z,18.93
2023-05-13T08:16:11.453Z,19.12
2023-05-13T08:18:38.107Z,19.28
2023-05-13T08:21:04.943Z,19.59
2023-05-13T08:23:44.047Z,19.38
2023-05-13T08:26:11.956Z,19.41
2023-05-13T08:28:38.571Z,19.51
2023-05-13T08:31:05.336Z,19.55
2023-05-13T08:33:32.865Z,19.62
2023-05-13T08:36:00.966Z,19.62
2023-05-13T08:38:27.586Z,19.72
2023-05-13T08:40:54.211Z,19.89
2023-05-13T08:43:24.215Z,19.93
2023-05-13T08:45:53.502Z,19.95
2023-05-13T08:48:20.476Z,20.09
2023-05-13T08:50:47.906Z,20.00
2023-05-13T08:53:17.479Z,19.98
2023-05-13T08:55:44.464Z,20.21
2023-05-13T08:58:11.824Z,20.04
2023-05-13T09:00:39.050Z,20.25
2023-05-13T09:03:05.752Z,20.36
2023-05-13T09:05:34.166Z,20.20
2023-05-13T09:08:06.952Z,20.38
2023-05-13T09:10:33.690Z,20.56
2023-05-13T09:13:01.839Z,20.82
2023-05-13T09:15:29.153Z,21.07
2023-05-13T09:18:04.422Z,21.16
2023-05-13T09:20:32.375Z,20.94
2023-05-13T09:23:01.930Z,21.03
2023-05-13T09:25:29.613Z,20.70
2023-05-13T09:28:03.757Z,21.15
2023-05-13T09:30:40.640Z,21.13
2023-05-13T09:33:20.021Z,21.30
2023-05-13T09:35:53.730Z,21.36
2023-05-13T09:38:25.309Z,21.45
2023-05-13T09:41:10.321Z,21.42
2023-05-13T09:43:38.922Z,21.67
2023-05-13T09:46:05.738Z,21.68
2023-05-13T09:48:33.974Z,21.81
2023-05-13T09:51:00.908Z,21.65
2023-05-13T09:53:28.407Z,21.83
2023-05-13T09:55:57.100Z,21.81
2023-05-13T09:58:25.767Z,21.62
2023-05-13T10:00:52.812Z,21.69
2023-05-13T10:03:19.648Z,21.81
2023-05-13T10:05:48.504Z,21.87
2023-05-13T10:08:17.099Z,22.07
2023-05-13T10:10:46.200Z,21.91
2023-05-13T10:13:18.072Z,22.09
2023-05-13T10:15:51.675Z,22.27
2023-05-13T10:18:20.138Z,22.15
2023-05-13T10:20:47.668Z,22.05
2023-05-13T10:23:14.243Z,21.93
2023-05-13T10:25:42.967Z,22.29
2023-05-13T10:28:10.765Z,22.38
2023-05-13T10:30:38.987Z,22.23
2023-05-13T10:33:05.987Z,22.30
2023-05-13T10:35:38.167Z,22.77
2023-05-13T10:38:30.474Z,22.95
2023-05-13T10:41:10.163Z,22.40
2023-05-13T10:43:37.402Z,22.39
2023-05-13T10:46:11.433Z,22.59
2023-05-13T10:48:59.477Z,22.96
2023-05-13T10:51:26.734Z,22.67
2023-05-13T10:53:55.647Z,22.70
2023-05-13T10:56:24.418Z,22.72
2023-05-13T10:59:18.229Z,22.66
2023-05-13T11:01:46.594Z,22.84
2023-05-13T11:04:16.038Z,23.07
2023-05-13T11:06:46.218Z,23.37
2023-05-13T11:09:31.159Z,22.97
2023-05-13T11:12:00.852Z,23.30
2023-05-13T11:14:30.275Z,23.80
2023-05-13T11:16:59.712Z,23.85
2023-05-13T11:19:28.526Z,23.64
2023-05-13T11:21:57.828Z,23.46
2023-05-13T11:24:24.627Z,23.13
2023-05-13T11:26:56.491Z,23.11
2023-05-13T11:29:36.184Z,23.21
2023-05-13T11:32:04.960Z,23.39
2023-05-13T11:34:32.852Z,23.48
2023-05-13T11:37:05.106Z,23.37
2023-05-13T11:39:33.147Z,23.21
2023-05-13T11:42:03.927Z,23.62
2023-05-13T11:44:31.006Z,23.76
2023-05-13T11:47:02.404Z,23.98
2023-05-13T11:49:33.513Z,24.32
2023-05-13T11:52:08.817Z,24.33
2023-05-13T11:54:49.629Z,24.33
2023-05-13T11:57:32.666Z,24.11
2023-05-13T12:00:00.864Z,24.31
2023-05-13T12:02:29.959Z,24.18
2023-05-13T12:04:59.894Z,24.17
2023-05-13T12:07:27.014Z,24.66
2023-05-13T12:09:57.784Z,24.58
2023-05-13T12:12:25.158Z,24.70
2023-05-13T12:14:52.993Z,24.35
2023-05-13T12:17:21.417Z,24.45
2023-05-13T12:20:13.317Z,24.29
2023-05-13T12:22:43.423Z,24.08
2023-05-13T12:25:31.996Z,23.55
2023-05-13T12:27:59.425Z,23.42
2023-05-13T12:30:26.277Z,23.91
2023-05-13T12:32:58.819Z,24.23
2023-05-13T12:35:25.382Z,24.23
2023-05-13T12:38:02.096Z,24.23
2023-05-13T12:40:29.073Z,24.69
2023-05-13T12:43:00.008Z,24.99
2023-05-13T12:45:31.648Z,24.32
2023-05-13T12:47:59.210Z,24.33
2023-05-13T12:50:26.286Z,24.26
2023-05-13T12:52:53.922Z,23.93
2023-05-13T12:55:21.107Z,23.98
2023-05-13T12:58:00.746Z,24.23
2023-05-13T13:00:27.842Z,23.93
2023-05-13T13:02:54.611Z,23.67
2023-05-13T13:05:22.269Z,23.45
2023-05-13T13:07:49.534Z,23.31
2023-05-13T13:10:16.511Z,23.20
2023-05-13T13:12:43.729Z,23.21
2023-05-13T13:15:11.074Z,23.39
2023-05-13T13:17:37.730Z,23.63
2023-05-13T13:20:06.841Z,23.85
2023-05-13T13:22:34.448Z,23.52
2023-05-13T13:25:01.031Z,24.06
2023-05-13T13:27:27.639Z,24.28
2023-05-13T13:29:54.263Z,24.45
2023-05-13T13:32:20.983Z,24.15
2023-05-13T13:34:47.650Z,24.13
2023-05-13T13:37:14.241Z,23.94
2023-05-13T13:39:40.991Z,24.39
2023-05-13T13:42:07.759Z,24.97
2023-05-13T13:44:36.657Z,25.06
2023-05-13T13:47:03.338Z,24.68
2023-05-13T13:49:29.918Z,24.61
2023-05-13T13:51:56.507Z,24.96
2023-05-13T13:54:23.202Z,24.93
2023-05-13T13:56:49.851Z,25.05
2023-05-13T13:59:19.080Z,24.75
2023-05-13T14:01:45.855Z,24.64
2023-05-13T14:04:14.871Z,24.43
2023-05-13T14:06:42.389Z,24.96
2023-05-13T14:09:10.377Z,24.83
2023-05-13T14:11:37.363Z,25.52
2023-05-13T14:14:04.542Z,25.03
2023-05-13T14:16:31.259Z,24.77
2023-05-13T14:18:58.061Z,24.60
2023-05-13T14:21:24.662Z,24.33
2023-05-13T14:23:51.233Z,24.41
2023-05-13T14:26:18.101Z,24.46
2023-05-13T14:28:44.999Z,24.99
2023-05-13T14:31:11.629Z,25.15
2023-05-13T14:33:38.437Z,25.32
2023-05-13T14:36:06.197Z,24.92
2023-05-13T14:38:32.910Z,24.48
2023-05-13T14:40:59.452Z,24.71
2023-05-13T14:43:26.289Z,24.87
2023-05-13T14:45:52.878Z,24.98
2023-05-13T14:48:19.833Z,25.53
2023-05-13T14:50:47.018Z,25.02
2023-05-13T14:53:13.848Z,25.29
2023-05-13T14:55:40.430Z,25.37
2023-05-13T14:58:09.981Z,24.73
2023-05-13T15:00:39.838Z,24.42
2023-05-13T15:03:06.771Z,24.40
2023-05-13T15:05:33.576Z,24.61
2023-05-13T15:08:00.932Z,24.47
2023-05-13T15:10:27.493Z,24.37
2023-05-13T15:12:54.183Z,24.06
2023-05-13T15:15:20.765Z,24.11
2023-05-13T15:17:47.499Z,24.45
2023-05-13T15:20:14.161Z,24.54
2023-05-13T15:22:40.707Z,24.69
2023-05-13T15:25:08.011Z,24.88
2023-05-13T15:27:34.848Z,24.54
2023-05-13T15:30:01.677Z,24.76
2023-05-13T15:32:28.388Z,24.32
2023-05-13T15:34:54.947Z,24.00
2023-05-13T15:37:21.581Z,24.00
2023-05-13T15:39:48.152Z,24.26
2023-05-13T15:42:14.795Z,24.09
2023-05-13T15:44:41.340Z,24.69
2023-05-13T15:47:08.100Z,24.66
2023-05-13T15:49:34.744Z,24.46
2023-05-13T15:52:01.519Z,24.31
2023-05-13T15:54:28.216Z,23.90
2023-05-13T15:56:56.593Z,23.72
2023-05-13T15:59:23.219Z,24.06
2023-05-13T16:01:49.777Z,24.19
2023-05-13T16:04:16.582Z,24.42
2023-05-13T16:06:43.231Z,24.20
2023-05-13T16:09:10.694Z,24.15
2023-05-13T16:11:37.452Z,23.84
2023-05-13T16:14:04.614Z,23.82
2023-05-13T16:16:31.353Z,23.46
2023-05-13T16:18:58.594Z,23.09
2023-05-13T16:21:25.344Z,23.16
2023-05-13T16:23:51.886Z,23.29
2023-05-13T16:26:18.470Z,23.18
2023-05-13T16:28:44.999Z,23.21
2023-05-13T16:31:11.672Z,23.28
2023-05-13T16:33:39.419Z,23.30
2023-05-13T16:36:06.926Z,23.27
2023-05-13T16:38:35.341Z,23.26
2023-05-13T16:41:01.963Z,23.26
2023-05-13T16:43:28.569Z,23.40
2023-05-13T16:45:56.005Z,23.24
2023-05-13T16:48:22.722Z,23.29
2023-05-13T16:50:49.541Z,23.08
2023-05-13T16:53:16.158Z,23.41
2023-05-13T16:55:42.798Z,23.23
2023-05-13T16:58:09.339Z,22.98
2023-05-13T17:00:35.869Z,23.03
2023-05-13T17:03:02.631Z,22.95
2023-05-13T17:05:30.088Z,22.88
2023-05-13T17:07:56.712Z,23.02
2023-05-13T17:10:23.344Z,22.97
2023-05-13T17:12:50.002Z,22.64
2023-05-13T17:15:16.568Z,22.86
2023-05-13T17:17:43.168Z,22.60
2023-05-13T17:20:10.913Z,22.60
2023-05-13T17:22:37.596Z,22.72
2023-05-13T17:25:04.575Z,22.67
2023-05-13T17:27:31.176Z,22.73
2023-05-13T17:29:57.724Z,22.52
2023-05-13T17:32:24.492Z,22.58
2023-05-13T17:34:51.248Z,22.70
2023-05-13T17:37:17.840Z,22.88
2023-05-13T17:39:44.386Z,22.76
2023-05-13T17:42:11.710Z,22.78
2023-05-13T17:44:38.252Z,22.78
2023-05-13T17:47:04.857Z,22.70
2023-05-13T17:49:31.556Z,22.66
2023-05-13T17:51:58.190Z,22.59
2023-05-13T17:54:24.727Z,22.56
2023-05-13T17:56:51.339Z,22.57
2023-05-13T17:59:17.874Z,22.41
2023-05-13T18:01:44.519Z,22.03
2023-05-13T18:04:11.146Z,22.00
2023-05-13T18:06:37.750Z,21.96
2023-05-13T18:09:04.401Z,21.91
2023-05-13T18:11:31.020Z,21.83
2023-05-13T18:13:57.568Z,21.75
2023-05-13T18:16:24.344Z,21.69
2023-05-13T18:18:51.067Z,21.61
2023-05-13T18:21:17.747Z,21.56
2023-05-13T18:23:45.965Z,21.49
2023-05-13T18:26:12.590Z,21.38
2023-05-13T18:28:41.678Z,21.47
2023-05-13T18:31:08.324Z,21.53
2023-05-13T18:33:34.970Z,21.34
2023-05-13T18:36:01.954Z,21.26
2023-05-13T18:38:28.523Z,21.20
2023-05-13T18:40:55.454Z,21.12
2023-05-13T18:43:22.069Z,20.99
2023-05-13T18:45:48.736Z,20.92
2023-05-13T18:48:15.407Z,20.82
2023-05-13T18:50:42.069Z,20.67
2023-05-13T18:53:08.700Z,20.60
2023-05-13T18:55:36.112Z,20.50
2023-05-13T18:58:02.766Z,20.48
2023-05-13T19:00:29.292Z,20.36
2023-05-13T19:02:56.042Z,20.20
2023-05-13T19:05:23.787Z,20.03
2023-05-13T19:07:50.630Z,19.84
2023-05-13T19:10:17.302Z,19.77
2023-05-13T19:12:43.965Z,19.78
2023-05-13T19:15:11.355Z,19.61
2023-05-13T19:17:40.454Z,19.46
2023-05-13T19:20:07.764Z,19.40
2023-05-13T19:22:34.418Z,19.30
2023-05-13T19:25:01.049Z,19.18
2023-05-13T19:27:27.676Z,19.10
2023-05-13T19:29:54.228Z,18.86
2023-05-13T19:32:20.879Z,18.74
2023-05-13T19:34:47.432Z,18.73
2023-05-13T19:37:13.981Z,18.70
2023-05-13T19:39:40.529Z,18.56
2023-05-13T19:42:07.140Z,18.48
2023-05-13T19:44:34.073Z,18.42
2023-05-13T19:47:00.756Z,18.34
2023-05-13T19:49:27.403Z,18.31
2023-05-13T19:51:54.255Z,18.17
2023-05-13T19:54:21.216Z,18.11
2023-05-13T19:56:47.832Z,18.08
2023-05-13T19:59:14.583Z,17.91
2023-05-13T20:01:41.987Z,17.74
2023-05-13T20:04:09.507Z,17.63
2023-05-13T20:06:36.620Z,17.64
2023-05-13T20:09:03.541Z,17.64
2023-05-13T20:11:31.334Z,17.42
2023-05-13T20:13:59.340Z,17.35
2023-05-13T20:16:25.974Z,17.32
2023-05-13T20:18:52.566Z,17.34
2023-05-13T20:21:19.151Z,17.22
2023-05-13T20:23:45.758Z,17.08
2023-05-13T20:26:12.387Z,16.90
2023-05-13T20:28:38.956Z,16.74
2023-05-13T20:31:05.634Z,16.70
2023-05-13T20:33:32.529Z,16.64
2023-05-13T20:35:59.209Z,16.73
2023-05-13T20:38:25.892Z,16.70
2023-05-13T20:40:52.635Z,16.67
2023-05-13T20:43:19.331Z,16.52
2023-05-13T20:45:46.036Z,16.53
2023-05-13T20:48:13.602Z,16.46
2023-05-13T20:50:40.247Z,16.38
2023-05-13T20:53:07.196Z,16.36
2023-05-13T20:55:33.864Z,16.23
2023-05-13T20:58:00.762Z,16.15
2023-05-13T21:00:27.385Z,16.17
2023-05-13T21:02:54.089Z,16.05
2023-05-13T21:05:21.034Z,16.02
2023-05-13T21:07:47.820Z,15.96
2023-05-13T21:10:14.374Z,15.87
2023-05-13T21:12:41.288Z,15.85
2023-05-13T21:15:08.592Z,15.89
2023-05-13T21:17:35.227Z,15.91
2023-05-13T21:20:01.980Z,15.79
2023-05-13T21:22:28.582Z,15.75
2023-05-13T21:24:55.198Z,15.60
2023-05-13T21:27:21.845Z,15.51
2023-05-13T21:29:48.465Z,15.53
2023-05-13T21:32:16.373Z,15.36
2023-05-13T21:34:42.994Z,15.40
2023-05-13T21:37:09.623Z,15.48
2023-05-13T21:39:36.170Z,15.52
2023-05-13T21:42:03.351Z,15.41
2023-05-13T21:44:29.992Z,15.39
2023-05-13T21:46:56.781Z,15.38
2023-05-13T21:49:24.060Z,15.33
2023-05-13T21:51:51.366Z,15.29
2023-05-13T21:54:18.900Z,15.15
2023-05-13T21:56:45.975Z,14.96
2023-05-13T21:59:12.684Z,14.97
2023-05-13T22:01:39.289Z,14.93
2023-05-13T22:04:05.950Z,14.84
2023-05-13T22:06:33.540Z,14.94
2023-05-13T22:09:01.163Z,14.95
2023-05-13T22:11:27.829Z,14.95
2023-05-13T22:13:54.393Z,14.95
2023-05-13T22:16:21.468Z,14.94
2023-05-13T22:18:49.753Z,14.98
2023-05-13T22:21:16.748Z,14.90
2023-05-13T22:23:43.336Z,14.96
2023-05-13T22:26:10.059Z,15.06
2023-05-13T22:28:36.659Z,15.01
2023-05-13T22:31:03.277Z,14.98
2023-05-13T22:33:29.969Z,14.85
2023-05-13T22:35:56.567Z,14.76
2023-05-13T22:38:23.141Z,14.68
2023-05-13T22:40:49.724Z,14.70
2023-05-13T22:43:16.324Z,14.79
2023-05-13T22:45:42.962Z,14.87
2023-05-13T22:48:09.685Z,14.93
2023-05-13T22:50:36.323Z,14.90
2023-05-13T22:53:03.003Z,14.87
2023-05-13T22:55:29.582Z,14.91
2023-05-13T22:57:56.236Z,14.76
2023-05-13T23:00:23.215Z,14.61
2023-05-13T23:02:49.909Z,14.69
2023-05-13T23:05:16.645Z,14.73
2023-05-13T23:07:43.214Z,14.77
2023-05-13T23:10:11.180Z,14.79
2023-05-13T23:12:38.902Z,14.63
2023-05-13T23:15:07.007Z,14.60
2023-05-13T23:17:33.932Z,14.56
2023-05-13T23:20:00.758Z,14.53
2023-05-13T23:22:27.384Z,14.57
2023-05-13T23:24:53.936Z,14.59
2023-05-13T23:27:20.730Z,14.59
2023-05-13T23:29:47.347Z,14.56
2023-05-13T23:32:13.966Z,14.65
2023-05-13T23:34:40.765Z,14.74
2023-05-13T23:37:07.335Z,14.74
2023-05-13T23:39:33.964Z,14.63
2023-05-13T23:42:00.571Z,14.57
2023-05-13T23:44:27.155Z,14.60
2023-05-13T23:46:53.831Z,14.43
2023-05-13T23:49:20.935Z,14.24
2023-05-13T23:51:47.547Z,14.27
2023-05-13T23:54:14.104Z,14.22
2023-05-13T23:56:40.742Z,14.25
2023-05-13T23:59:08.512Z,14.25
